Harrison Valley, Pennsylvania
Current Conditions -  °F | °C
As of 12:15 PM on Friday 28 Nov 2014 (Local Time) from KN38 Reporting Station
Broken Clouds Broken Clouds  
Wind Chill: 12°   Ceiling: 3400
Heat Index: 23°   Visibility: 10mi
Dew Point: 10°   Wind: 10mph
Humidity: 59%   Direction: 270°W
Pressure: 30.16"   Gusts: 16mph
Location:  41.94°N, 77.65°W
Report Text: KN38 281715Z AUTO 27009G14KT 240V310 10SM FEW022 SCT028 BKN034 M05/M12 A3016 RMK AO2
Loading
Personal Weather Stations






























Interactive Weather Map New forecast layout! Learn more

10-Day Weather Forecast

Advertisements
Track Severe Weather on mobile